createdAt,value
2019-04-14T00:00:42.650Z,10.63
2019-04-14T00:03:13.029Z,10.63
2019-04-14T00:05:42.956Z,10.56
2019-04-14T00:08:19.795Z,10.55
2019-04-14T00:10:48.693Z,10.66
2019-04-14T00:13:17.521Z,10.61
2019-04-14T00:15:49.081Z,10.58
2019-04-14T00:18:18.595Z,10.57
2019-04-14T00:20:47.404Z,10.57
2019-04-14T00:23:19.491Z,10.43
2019-04-14T00:25:48.222Z,10.37
2019-04-14T00:28:16.939Z,10.33
2019-04-14T00:30:46.913Z,10.38
2019-04-14T00:33:17.283Z,10.34
2019-04-14T00:36:00.214Z,10.30
2019-04-14T00:38:34.478Z,10.25
2019-04-14T00:41:05.171Z,10.30
2019-04-14T00:43:35.584Z,10.42
2019-04-14T00:46:09.965Z,10.35
2019-04-14T00:48:38.783Z,10.36
2019-04-14T00:51:07.482Z,10.30
2019-04-14T00:53:38.193Z,10.34
2019-04-14T00:56:08.267Z,10.24
2019-04-14T00:58:37.123Z,10.36
2019-04-14T01:01:06.947Z,10.31
2019-04-14T01:03:35.809Z,10.30
2019-04-14T01:06:05.441Z,10.28
2019-04-14T01:08:34.204Z,10.24
2019-04-14T01:11:03.127Z,10.19
2019-04-14T01:13:31.841Z,10.15
2019-04-14T01:16:09.811Z,10.22
2019-04-14T01:18:31.944Z,10.17
2019-04-14T01:21:00.784Z,10.23
2019-04-14T01:23:36.931Z,10.24
2019-04-14T01:26:07.102Z,10.16
2019-04-14T01:28:35.902Z,10.13
2019-04-14T01:31:05.539Z,10.17
2019-04-14T01:33:34.401Z,10.11
2019-04-14T01:36:03.956Z,10.09
2019-04-14T01:38:32.724Z,10.22
2019-04-14T01:41:02.128Z,10.21
2019-04-14T01:43:32.021Z,10.24
2019-04-14T01:46:10.521Z,10.16
2019-04-14T01:48:32.418Z,10.20
2019-04-14T01:51:02.826Z,10.19
2019-04-14T01:53:33.608Z,10.24
2019-04-14T01:56:03.960Z,10.32
2019-04-14T01:58:34.241Z,10.38
2019-04-14T02:01:19.566Z,10.37
2019-04-14T02:03:48.367Z,10.40
2019-04-14T02:06:20.075Z,10.32
2019-04-14T02:08:50.127Z,10.35
2019-04-14T02:11:24.701Z,10.33
2019-04-14T02:13:53.568Z,10.39
2019-04-14T02:16:32.314Z,10.36
2019-04-14T02:18:54.069Z,10.40
2019-04-14T02:21:23.776Z,10.47
2019-04-14T02:23:53.901Z,10.40
2019-04-14T02:26:23.997Z,10.49
2019-04-14T02:28:52.925Z,10.50
2019-04-14T02:31:45.383Z,10.47
2019-04-14T02:34:25.972Z,10.46
2019-04-14T02:36:57.099Z,10.54
2019-04-14T02:39:25.859Z,10.63
2019-04-14T02:41:57.008Z,10.61
2019-04-14T02:44:23.999Z,10.53
2019-04-14T02:49:19.428Z,10.54
2019-04-14T02:51:48.164Z,10.55
2019-04-14T02:54:22.797Z,10.47
2019-04-14T02:56:52.830Z,10.57
2019-04-14T02:59:19.697Z,10.62
2019-04-14T03:02:12.230Z,10.63
2019-04-14T03:06:56.458Z,10.52
2019-04-14T03:09:38.845Z,10.39
2019-04-14T03:11:51.633Z,10.27
2019-04-14T03:17:21.756Z,10.34
2019-04-14T03:21:09.214Z,10.35
2019-04-14T03:22:49.917Z,10.38
2019-04-14T03:25:17.117Z,10.26
2019-04-14T03:27:59.170Z,10.05
2019-04-14T03:36:05.868Z,9.86
2019-04-14T03:43:09.894Z,9.81
2019-04-14T03:46:04.756Z,9.78
2019-04-14T03:50:48.562Z,9.81
2019-04-14T03:53:48.729Z,9.78
2019-04-14T03:55:55.760Z,9.75
2019-04-14T03:58:20.534Z,9.80
2019-04-14T04:00:49.446Z,9.75
2019-04-14T04:03:23.970Z,9.75
2019-04-14T04:05:52.686Z,9.84
2019-04-14T04:08:22.375Z,9.84
2019-04-14T04:10:53.245Z,9.88
2019-04-14T04:13:23.650Z,9.86
2019-04-14T04:15:52.544Z,9.94
2019-04-14T04:18:28.883Z,9.90
2019-04-14T04:20:59.124Z,10.10
2019-04-14T04:23:29.390Z,9.98
2019-04-14T04:26:19.404Z,9.94
2019-04-14T04:29:09.127Z,10.05
2019-04-14T04:31:43.857Z,9.88
2019-04-14T04:34:16.235Z,9.89
2019-04-14T04:36:59.582Z,9.95
2019-04-14T04:39:41.788Z,10.08
2019-04-14T04:42:11.238Z,9.96
2019-04-14T04:44:40.103Z,9.96
2019-04-14T04:47:09.871Z,10.20
2019-04-14T04:49:38.804Z,10.08
2019-04-14T04:52:11.113Z,10.19
2019-04-14T04:54:38.484Z,10.16
2019-04-14T04:57:07.267Z,10.17
2019-04-14T04:59:36.732Z,10.08
2019-04-14T05:02:07.005Z,9.99
2019-04-14T05:04:35.743Z,10.10
2019-04-14T05:07:05.538Z,10.14
2019-04-14T05:09:39.097Z,10.11
2019-04-14T05:12:41.301Z,10.31
2019-04-14T05:15:24.779Z,10.23
2019-04-14T05:17:55.956Z,10.32
2019-04-14T05:20:24.926Z,10.26
2019-04-14T05:22:54.951Z,10.21
2019-04-14T05:25:23.791Z,10.39
2019-04-14T05:27:53.712Z,10.53
2019-04-14T05:30:22.596Z,10.54
2019-04-14T05:32:52.214Z,10.50
2019-04-14T05:35:23.454Z,10.50
2019-04-14T05:37:52.978Z,10.60
2019-04-14T05:40:21.882Z,10.52
2019-04-14T05:42:51.620Z,10.56
2019-04-14T05:45:20.438Z,10.57
2019-04-14T05:47:50.154Z,10.70
2019-04-14T05:50:20.209Z,10.77
2019-04-14T05:52:49.351Z,10.72
2019-04-14T05:55:22.036Z,10.56
2019-04-14T05:57:50.793Z,10.55
2019-04-14T06:00:21.549Z,10.73
2019-04-14T06:02:50.655Z,10.85
2019-04-14T06:05:19.532Z,10.94
2019-04-14T06:07:48.247Z,11.00
2019-04-14T06:10:16.961Z,11.00
2019-04-14T06:12:45.705Z,11.04
2019-04-14T06:15:24.719Z,10.97
2019-04-14T06:17:53.465Z,10.91
2019-04-14T06:20:22.189Z,10.85
2019-04-14T06:22:50.901Z,10.83
2019-04-14T06:25:19.616Z,10.75
2019-04-14T06:27:48.324Z,10.73
2019-04-14T06:30:22.105Z,10.73
2019-04-14T06:32:51.367Z,10.86
2019-04-14T06:35:30.891Z,10.91
2019-04-14T06:38:01.188Z,10.96
2019-04-14T06:40:34.595Z,10.77
2019-04-14T06:43:03.320Z,10.66
2019-04-14T06:45:32.031Z,10.80
2019-04-14T06:48:00.781Z,10.76
2019-04-14T06:50:29.505Z,10.82
2019-04-14T06:52:58.217Z,10.80
2019-04-14T06:55:26.925Z,10.94
2019-04-14T06:57:58.806Z,10.98
2019-04-14T07:00:27.571Z,11.18
2019-04-14T07:02:56.278Z,11.14
2019-04-14T07:05:24.986Z,11.26
2019-04-14T07:07:57.190Z,11.34
2019-04-14T07:10:24.145Z,11.32
2019-04-14T07:12:52.895Z,11.49
2019-04-14T07:15:21.611Z,11.50
2019-04-14T07:17:50.324Z,11.59
2019-04-14T07:20:19.043Z,11.74
2019-04-14T07:22:47.771Z,11.70
2019-04-14T07:25:18.885Z,11.79
2019-04-14T07:27:47.601Z,11.81
2019-04-14T07:30:18.886Z,11.82
2019-04-14T07:32:54.952Z,11.65
2019-04-14T07:35:25.242Z,11.66
2019-04-14T07:37:55.519Z,11.65
2019-04-14T07:40:31.775Z,11.62
2019-04-14T07:43:04.954Z,11.73
2019-04-14T07:45:47.304Z,11.73
2019-04-14T07:48:20.381Z,11.82
2019-04-14T07:50:53.830Z,11.88
2019-04-14T07:53:27.062Z,11.92
2019-04-14T07:55:57.337Z,12.23
2019-04-14T07:58:33.499Z,12.36
2019-04-14T08:01:03.780Z,12.66
2019-04-14T08:03:37.011Z,12.71
2019-04-14T08:06:05.757Z,12.90
2019-04-14T08:08:34.464Z,12.78
2019-04-14T08:11:03.173Z,12.78
2019-04-14T08:13:31.933Z,12.89
2019-04-14T08:16:00.637Z,12.94
2019-04-14T08:18:29.343Z,13.10
2019-04-14T08:20:58.098Z,13.10
2019-04-14T08:23:26.813Z,13.22
2019-04-14T08:25:55.522Z,13.22
2019-04-14T08:28:24.241Z,13.41
2019-04-14T08:30:52.955Z,13.38
2019-04-14T08:33:21.723Z,13.53
2019-04-14T08:35:50.439Z,13.58
2019-04-14T08:38:19.155Z,13.69
2019-04-14T08:40:47.876Z,13.79
2019-04-14T08:43:34.601Z,13.85
2019-04-14T08:46:04.969Z,13.91
2019-04-14T08:48:53.359Z,14.05
2019-04-14T08:51:32.482Z,14.20
2019-04-14T08:54:02.762Z,14.37
2019-04-14T08:56:38.821Z,14.55
2019-04-14T08:59:09.098Z,14.52
2019-04-14T09:01:39.377Z,15.08
2019-04-14T09:04:21.877Z,15.15
2019-04-14T09:06:58.071Z,15.25
2019-04-14T09:09:28.378Z,15.56
2019-04-14T09:11:58.641Z,15.86
2019-04-14T09:14:27.351Z,16.12
2019-04-14T09:16:56.057Z,16.45
2019-04-14T09:19:24.815Z,16.87
2019-04-14T09:21:53.528Z,17.14
2019-04-14T09:24:22.246Z,17.17
2019-04-14T09:26:50.998Z,17.19
2019-04-14T09:29:19.706Z,17.44
2019-04-14T09:31:48.406Z,17.40
2019-04-14T09:34:19.219Z,17.68
2019-04-14T09:36:47.925Z,17.17
2019-04-14T09:39:16.628Z,17.03
2019-04-14T09:41:45.377Z,17.40
2019-04-14T09:44:14.086Z,17.84
2019-04-14T09:46:42.843Z,18.07
2019-04-14T09:49:19.220Z,17.93
2019-04-14T09:51:47.924Z,18.03
2019-04-14T09:54:19.142Z,17.96
2019-04-14T09:56:47.853Z,18.05
2019-04-14T09:59:16.561Z,17.49
2019-04-14T10:01:45.313Z,17.36
2019-04-14T10:04:14.021Z,17.41
2019-04-14T10:06:42.729Z,16.57
2019-04-14T10:09:19.146Z,16.99
2019-04-14T10:11:51.174Z,17.54
2019-04-14T10:14:19.176Z,17.19
2019-04-14T10:16:47.889Z,16.91
2019-04-14T10:19:22.990Z,16.81
2019-04-14T10:21:51.705Z,16.47
2019-04-14T10:24:20.413Z,16.31
2019-04-14T10:26:49.136Z,16.99
2019-04-14T10:29:19.178Z,17.59
2019-04-14T10:31:47.889Z,18.22
2019-04-14T10:34:16.598Z,18.56
2019-04-14T10:36:45.340Z,18.51
2019-04-14T10:39:14.043Z,17.63
2019-04-14T10:41:42.752Z,16.56
2019-04-14T10:46:49.111Z,16.19
2019-04-14T10:49:17.823Z,16.45
2019-04-14T10:51:46.546Z,16.61
2019-04-14T10:54:15.264Z,16.66
2019-04-14T10:56:44.025Z,16.22
2019-04-14T10:59:19.183Z,15.69
2019-04-14T11:01:47.879Z,15.38
2019-04-14T11:04:18.481Z,15.04
2019-04-14T11:06:48.852Z,15.09
2019-04-14T11:09:21.572Z,14.92
2019-04-14T11:11:50.288Z,14.98
2019-04-14T11:14:18.995Z,14.95
2019-04-14T11:16:47.755Z,14.86
2019-04-14T11:19:22.754Z,14.81
2019-04-14T11:21:51.479Z,15.08
2019-04-14T11:24:23.983Z,15.25
2019-04-14T11:26:51.807Z,15.46
2019-04-14T11:29:20.516Z,15.88
2019-04-14T11:31:56.904Z,15.71
2019-04-14T11:34:39.109Z,15.85
2019-04-14T11:37:26.070Z,15.93
2019-04-14T11:39:54.792Z,16.32
2019-04-14T11:42:23.485Z,16.46
2019-04-14T11:44:52.250Z,16.64
2019-04-14T11:47:20.937Z,16.14
2019-04-14T11:49:49.689Z,16.05
2019-04-14T11:52:18.388Z,16.18
2019-04-14T11:54:47.109Z,16.41
2019-04-14T12:00:11.204Z,16.77
2019-04-14T12:02:57.762Z,16.75
2019-04-14T12:05:28.036Z,16.85
2019-04-14T12:07:58.369Z,16.89
2019-04-14T12:10:27.105Z,16.83
2019-04-14T12:12:55.813Z,16.56
2019-04-14T12:15:24.522Z,16.36
2019-04-14T12:17:53.281Z,16.51
2019-04-14T12:20:21.989Z,17.05
2019-04-14T12:22:50.699Z,16.84
2019-04-14T12:25:19.407Z,16.67
2019-04-14T12:27:48.869Z,16.89
2019-04-14T12:30:20.178Z,16.60
2019-04-14T12:32:49.014Z,16.66
2019-04-14T12:35:17.726Z,16.68
2019-04-14T12:37:46.433Z,17.50
2019-04-14T12:40:15.613Z,17.24
2019-04-14T12:43:02.418Z,17.28
2019-04-14T12:45:32.693Z,17.27
2019-04-14T12:48:09.020Z,16.85
2019-04-14T12:50:39.298Z,16.62
2019-04-14T12:53:08.005Z,16.19
2019-04-14T12:55:36.733Z,16.37
2019-04-14T12:58:11.356Z,16.40
2019-04-14T13:00:56.843Z,16.40
2019-04-14T13:03:25.847Z,16.11
2019-04-14T13:05:54.590Z,15.53
2019-04-14T13:08:23.295Z,15.69
2019-04-14T13:10:52.030Z,15.90
2019-04-14T13:13:20.782Z,15.98
2019-04-14T13:15:49.495Z,15.96
2019-04-14T13:18:18.200Z,15.94
2019-04-14T13:20:46.918Z,16.25
2019-04-14T13:23:15.622Z,15.95
2019-04-14T13:25:44.377Z,16.14
2019-04-14T13:28:19.983Z,16.22
2019-04-14T13:30:50.092Z,16.09
2019-04-14T13:33:19.320Z,16.12
2019-04-14T13:35:48.019Z,16.16
2019-04-14T13:38:16.738Z,15.86
2019-04-14T13:40:45.448Z,16.10
2019-04-14T13:43:14.159Z,16.44
2019-04-14T13:45:42.859Z,16.08
2019-04-14T13:48:19.306Z,16.14
2019-04-14T13:50:48.010Z,16.24
2019-04-14T13:53:19.436Z,16.39
2019-04-14T13:55:48.141Z,16.44
2019-04-14T13:58:16.841Z,16.51
2019-04-14T14:00:45.755Z,16.36
2019-04-14T14:03:14.461Z,16.30
2019-04-14T14:05:43.807Z,16.44
2019-04-14T14:08:19.377Z,16.10
2019-04-14T14:10:48.195Z,15.64
2019-04-14T14:13:22.032Z,15.31
2019-04-14T14:16:08.611Z,15.44
2019-04-14T14:18:38.933Z,15.27
2019-04-14T14:21:16.000Z,15.40
2019-04-14T14:24:02.790Z,15.47
2019-04-14T14:26:35.810Z,15.14
2019-04-14T14:29:04.642Z,15.03
2019-04-14T14:31:33.358Z,15.04
2019-04-14T14:34:02.068Z,14.87
2019-04-14T14:36:30.776Z,14.90
2019-04-14T14:38:59.475Z,14.92
2019-04-14T14:41:28.222Z,14.86
2019-04-14T14:43:56.928Z,14.88
2019-04-14T14:46:43.650Z,14.68
2019-04-14T14:49:13.924Z,14.79
2019-04-14T14:51:46.992Z,14.76
2019-04-14T14:54:22.574Z,14.93
2019-04-14T14:56:51.283Z,14.97
2019-04-14T14:59:20.042Z,14.67
2019-04-14T15:01:48.750Z,14.64
2019-04-14T15:04:18.987Z,14.58
2019-04-14T15:06:48.095Z,14.66
2019-04-14T15:09:16.804Z,14.46
2019-04-14T15:11:45.567Z,14.37
2019-04-14T15:14:14.273Z,14.20
2019-04-14T15:16:42.980Z,14.13
2019-04-14T15:21:49.332Z,14.06
2019-04-14T15:24:22.112Z,13.99
2019-04-14T15:26:50.829Z,13.99
2019-04-14T15:29:19.536Z,14.04
2019-04-14T15:31:48.255Z,13.93
2019-04-14T15:34:16.966Z,13.79
2019-04-14T15:36:45.720Z,13.87
2019-04-14T15:39:14.430Z,13.87
2019-04-14T15:41:43.133Z,13.87
2019-04-14T15:46:46.491Z,13.81
2019-04-14T15:49:20.831Z,13.74
2019-04-14T15:51:49.539Z,13.75
2019-04-14T15:54:18.250Z,13.60
2019-04-14T15:56:57.427Z,13.51
2019-04-14T15:59:36.556Z,13.58
2019-04-14T16:02:19.115Z,13.47
2019-04-14T16:04:49.394Z,13.34
2019-04-14T16:07:25.783Z,13.34
2019-04-14T16:10:02.034Z,13.28
2019-04-14T16:12:38.330Z,13.23
2019-04-14T16:15:09.431Z,13.14
2019-04-14T16:17:39.707Z,13.19
2019-04-14T16:20:10.001Z,13.22
2019-04-14T16:22:39.101Z,13.10
2019-04-14T16:25:07.956Z,13.22
2019-04-14T16:27:44.256Z,13.18
2019-04-14T16:30:31.026Z,13.27
2019-04-14T16:33:13.360Z,13.20
2019-04-14T16:35:42.536Z,13.21
2019-04-14T16:38:11.244Z,13.03
2019-04-14T16:40:39.954Z,12.97
2019-04-14T16:43:08.678Z,12.87
2019-04-14T16:45:37.395Z,12.77
2019-04-14T16:48:06.178Z,12.72
2019-04-14T16:50:34.892Z,12.68
2019-04-14T16:53:23.326Z,12.65
2019-04-14T16:56:18.444Z,12.61
2019-04-14T16:58:51.489Z,12.51
2019-04-14T17:01:24.644Z,12.50
2019-04-14T17:03:53.360Z,12.53
2019-04-14T17:06:22.111Z,12.42
2019-04-14T17:08:50.821Z,12.44
2019-04-14T17:11:19.550Z,12.36
2019-04-14T17:13:52.922Z,12.35
2019-04-14T17:16:23.213Z,12.31
2019-04-14T17:19:02.602Z,12.26
2019-04-14T17:21:35.844Z,12.18
2019-04-14T17:24:16.743Z,12.11
2019-04-14T17:26:46.991Z,12.01
2019-04-14T17:29:29.333Z,12.01
2019-04-14T17:31:59.607Z,11.98
2019-04-14T17:34:35.897Z,11.99
2019-04-14T17:37:21.127Z,11.89
2019-04-14T17:40:00.629Z,11.86
2019-04-14T17:42:36.862Z,11.86
2019-04-14T17:45:18.149Z,11.86
2019-04-14T17:47:54.471Z,11.83
2019-04-14T17:50:43.170Z,11.82
2019-04-14T17:53:16.203Z,11.75
2019-04-14T17:56:05.404Z,11.76
2019-04-14T17:58:38.416Z,11.72
2019-04-14T18:01:24.899Z,11.59
2019-04-14T18:04:00.933Z,11.55
2019-04-14T18:06:33.995Z,11.44
2019-04-14T18:09:04.297Z,11.37
2019-04-14T18:11:37.308Z,11.41
2019-04-14T18:14:07.590Z,11.40
2019-04-14T18:16:47.094Z,11.36
2019-04-14T18:19:29.460Z,11.33
2019-04-14T18:21:58.168Z,11.37
2019-04-14T18:24:26.917Z,11.47
2019-04-14T18:26:55.638Z,11.58
2019-04-14T18:29:37.688Z,11.65
2019-04-14T18:32:13.796Z,11.69
2019-04-14T18:34:59.184Z,11.86
2019-04-14T18:37:29.541Z,11.83
2019-04-14T18:40:05.643Z,11.82
2019-04-14T18:42:39.011Z,11.79
2019-04-14T18:45:10.527Z,11.79
2019-04-14T18:47:49.866Z,11.76
2019-04-14T18:50:36.334Z,11.74
2019-04-14T18:53:22.919Z,11.79
2019-04-14T18:56:02.129Z,11.77
2019-04-14T18:58:35.666Z,11.77
2019-04-14T19:01:08.667Z,11.85
2019-04-14T19:03:37.487Z,11.84
2019-04-14T19:06:06.239Z,11.91
2019-04-14T19:08:34.949Z,11.88
2019-04-14T19:11:17.150Z,11.83
2019-04-14T19:13:50.418Z,11.84
2019-04-14T19:16:20.698Z,11.88
2019-04-14T19:19:00.032Z,11.89
2019-04-14T19:21:30.300Z,11.87
2019-04-14T19:23:59.035Z,11.87
2019-04-14T19:26:27.792Z,11.77
2019-04-14T19:28:56.496Z,11.69
2019-04-14T19:31:25.233Z,11.77
2019-04-14T19:33:53.991Z,11.74
2019-04-14T19:36:22.698Z,11.71
2019-04-14T19:38:51.400Z,11.67
2019-04-14T19:41:20.154Z,11.68
2019-04-14T19:43:49.259Z,11.71
2019-04-14T19:46:17.962Z,11.78
2019-04-14T19:48:46.709Z,11.70
2019-04-14T19:51:15.417Z,11.55
2019-04-14T19:53:44.128Z,11.44
2019-04-14T19:56:12.870Z,11.53
2019-04-14T19:58:41.579Z,11.39
2019-04-14T20:01:10.292Z,11.32
2019-04-14T20:03:39.083Z,11.32
2019-04-14T20:06:07.784Z,11.33
2019-04-14T20:08:36.544Z,11.30
2019-04-14T20:11:05.361Z,11.26
2019-04-14T20:13:35.737Z,11.27
2019-04-14T20:16:12.041Z,11.23
2019-04-14T20:18:45.048Z,11.28
2019-04-14T20:21:27.632Z,11.11
2019-04-14T20:23:57.906Z,11.09
2019-04-14T20:26:43.531Z,11.14
2019-04-14T20:29:13.826Z,11.11
2019-04-14T20:31:47.141Z,11.15
2019-04-14T20:34:15.846Z,11.12
2019-04-14T20:36:44.555Z,11.14
2019-04-14T20:39:14.499Z,11.11
2019-04-14T20:41:43.302Z,11.12
2019-04-14T20:44:12.312Z,11.25
2019-04-14T20:46:41.025Z,11.13
2019-04-14T20:49:09.830Z,11.10
2019-04-14T20:51:38.576Z,11.03
2019-04-14T20:54:07.287Z,11.05
2019-04-14T20:56:35.987Z,11.02
2019-04-14T20:59:05.297Z,10.97
2019-04-14T21:01:35.566Z,11.02
2019-04-14T21:04:06.048Z,11.07
2019-04-14T21:06:45.289Z,11.15
2019-04-14T21:09:15.570Z,11.13
2019-04-14T21:11:51.548Z,11.14
2019-04-14T21:14:31.093Z,11.26
2019-04-14T21:17:16.663Z,11.15
2019-04-14T21:19:46.991Z,10.96
2019-04-14T21:22:33.844Z,10.90
2019-04-14T21:25:09.952Z,10.94
2019-04-14T21:27:40.297Z,10.96
2019-04-14T21:30:13.912Z,11.11
2019-04-14T21:32:50.126Z,11.13
2019-04-14T21:35:36.636Z,11.07
2019-04-14T21:38:06.919Z,11.05
2019-04-14T21:40:46.268Z,10.91
2019-04-14T21:43:14.979Z,10.99
2019-04-14T21:45:43.705Z,10.99
2019-04-14T21:48:12.449Z,11.00
2019-04-14T21:50:41.238Z,11.00
2019-04-14T21:53:09.967Z,10.99
2019-04-14T21:55:38.676Z,10.90
2019-04-14T21:58:17.966Z,10.86
2019-04-14T22:01:05.779Z,10.82
2019-04-14T22:03:36.052Z,10.77
2019-04-14T22:06:24.737Z,10.66
2019-04-14T22:08:54.744Z,10.59
2019-04-14T22:11:24.946Z,10.47
2019-04-14T22:13:53.737Z,10.44
2019-04-14T22:16:22.444Z,10.43
2019-04-14T22:18:51.304Z,10.34
2019-04-14T22:21:20.011Z,10.31
2019-04-14T22:24:00.513Z,10.27
2019-04-14T22:26:25.901Z,10.20
2019-04-14T22:28:49.592Z,10.17
2019-04-14T22:31:18.343Z,10.16
2019-04-14T22:33:47.043Z,10.01
2019-04-14T22:36:15.753Z,10.04
2019-04-14T22:38:44.458Z,10.03
2019-04-14T22:41:13.159Z,10.00
2019-04-14T22:43:41.897Z,9.95
2019-04-14T22:46:10.598Z,9.94
2019-04-14T22:48:39.610Z,9.98
2019-04-14T22:51:08.493Z,10.00
2019-04-14T22:53:37.192Z,10.00
2019-04-14T22:56:05.957Z,10.04
2019-04-14T22:58:34.658Z,10.11
2019-04-14T23:01:11.194Z,10.11
2019-04-14T23:03:50.233Z,10.08
2019-04-14T23:06:36.962Z,10.08
2019-04-14T23:09:23.345Z,10.02
2019-04-14T23:11:56.845Z,10.04
2019-04-14T23:14:30.100Z,10.00
2019-04-14T23:17:12.429Z,9.99
2019-04-14T23:19:42.692Z,9.94
2019-04-14T23:22:18.825Z,10.10
2019-04-14T23:24:49.095Z,10.18
2019-04-14T23:27:17.805Z,10.19
2019-04-14T23:29:46.609Z,10.19
2019-04-14T23:32:15.329Z,10.23
2019-04-14T23:34:44.060Z,10.16
2019-04-14T23:37:12.806Z,10.16
2019-04-14T23:39:41.521Z,10.23
2019-04-14T23:42:10.214Z,10.20
2019-04-14T23:44:39.049Z,10.22
2019-04-14T23:47:07.747Z,10.29
2019-04-14T23:49:36.455Z,10.39
2019-04-14T23:52:05.232Z,10.41
2019-04-14T23:54:33.940Z,10.46
2019-04-14T23:57:05.895Z,10.43
2019-04-14T23:59:33.111Z,10.52
